KCDW

Essex County Airport

Caldwell, New Jersey, USA
METAR KCDW 181553Z 31009G17KT 290V360 10SM CLR 08/M07 A3036 RMK AO2 SLP287 T00781072
Observed Flight Rules
Oct-18 @ 15:53 UTC (an hour ago) Visual Flight Rules
Wind Visibility Clouds
310° at 9 knots
 Gusting to 17 knots
10 miles
  • Clear skies
Temperatures Readings
Current 8°C / 46°F
Dewpoint -7°C / 19°F
Humidity 34%
Altimeter 30.36" Hg
Pressure 1028.7 hPa
Elevation 64
METAR KCDW 181553Z 31009G17KT 290V360 10SM CLR 08/M07 A3036 RMK AO2 SLP287 T00781072
Observed Flight Rules
Oct-18 @ 15:53 UTC
(an hour ago)
VFR
Wind Visibility
310° at 9 knots
 Gusting to 17 knots
10 miles
Clouds
  • Clear skies
Temperature Dewpoint
8°C / 46°F -7°C / 19°F
Humidity Altimeter Pressure
34% 30.36" Hg 1028.7 hPa